5ちゃんねる ★スマホ版★ ■掲示板に戻る■ 全部 1- 最新50  

■ このスレッドは過去ログ倉庫に格納されています

【松島】☆航空祭スレッド167★【百里】

71 :専守防衛さん:2009/08/22(土) 09:04:03
08/22 08:00 RJST 212300Z 35003KT 9999 FEW030 BKN050 BKN100 23/20 Q1002 RMK 1CU030 5SC050 6AC100 A2961=

ま、何とかなるんじゃない?。


125 KB
★スマホ版★ 掲示板に戻る 全部 前100 次100 最新50

read.cgi ver 05.04.00 2017/10/04 Walang Kapalit ★
FOX ★ DSO(Dynamic Shared Object)